createdAt,value
2018-06-08T00:02:12.731Z,2.20
2018-06-08T00:04:39.624Z,2.40
2018-06-08T00:07:06.524Z,2.20
2018-06-08T00:09:33.459Z,2.20
2018-06-08T00:12:00.351Z,2.10
2018-06-08T00:14:27.241Z,2.50
2018-06-08T00:16:54.141Z,2.70
2018-06-08T00:19:21.031Z,2.47
2018-06-08T00:21:47.919Z,2.67
2018-06-08T00:24:14.813Z,2.40
2018-06-08T00:26:41.707Z,2.37
2018-06-08T00:29:08.596Z,2.40
2018-06-08T00:31:35.500Z,2.37
2018-06-08T00:34:02.387Z,2.37
2018-06-08T00:36:29.281Z,2.40
2018-06-08T00:38:56.179Z,2.60
2018-06-08T00:41:23.071Z,2.70
2018-06-08T00:43:49.954Z,2.50
2018-06-08T00:46:16.860Z,2.83
2018-06-08T00:48:43.755Z,2.93
2018-06-08T00:51:10.651Z,3.10
2018-06-08T00:53:37.524Z,2.97
2018-06-08T00:56:04.943Z,2.90
2018-06-08T00:58:31.836Z,2.90
2018-06-08T01:00:58.717Z,2.80
2018-06-08T01:03:25.604Z,2.80
2018-06-08T01:05:52.501Z,3.10
2018-06-08T01:08:19.407Z,2.83
2018-06-08T01:10:46.288Z,3.20
2018-06-08T01:13:13.180Z,2.90
2018-06-08T01:15:40.832Z,3.10
2018-06-08T01:18:07.844Z,2.90
2018-06-08T01:20:34.748Z,3.37
2018-06-08T01:23:01.674Z,2.80
2018-06-08T01:25:28.579Z,2.97
2018-06-08T01:27:55.467Z,2.43
2018-06-08T01:30:22.373Z,2.67
2018-06-08T01:32:49.264Z,3.43
2018-06-08T01:35:16.152Z,3.03
2018-06-08T01:37:43.067Z,3.40
2018-06-08T01:40:09.953Z,3.67
2018-06-08T01:42:36.836Z,3.23
2018-06-08T01:45:03.766Z,3.43
2018-06-08T01:47:30.653Z,3.20
2018-06-08T01:49:57.532Z,2.67
2018-06-08T01:52:24.416Z,2.87
2018-06-08T01:54:51.303Z,3.53
2018-06-08T01:57:18.188Z,3.37
2018-06-08T01:59:45.068Z,3.50
2018-06-08T02:02:11.967Z,3.33
2018-06-08T02:04:38.841Z,3.17
2018-06-08T02:07:05.740Z,3.50
2018-06-08T02:09:32.943Z,3.60
2018-06-08T02:11:59.887Z,3.70
2018-06-08T02:14:26.752Z,4.20
2018-06-08T02:16:53.645Z,3.57
2018-06-08T02:19:21.024Z,3.50
2018-06-08T02:21:47.914Z,3.73
2018-06-08T02:24:14.796Z,3.60
2018-06-08T02:26:41.688Z,3.50
2018-06-08T02:29:08.564Z,4.10
2018-06-08T02:31:35.461Z,4.30
2018-06-08T02:34:02.353Z,4.40
2018-06-08T02:36:29.264Z,4.47
2018-06-08T02:38:56.133Z,4.20
2018-06-08T02:41:23.064Z,4.70
2018-06-08T02:43:49.961Z,4.40
2018-06-08T02:46:16.870Z,3.80
2018-06-08T02:48:43.916Z,4.20
2018-06-08T02:51:10.816Z,4.93
2018-06-08T02:53:37.745Z,4.77
2018-06-08T02:56:04.676Z,4.00
2018-06-08T02:58:31.581Z,3.70
2018-06-08T03:00:58.487Z,4.13
2018-06-08T03:03:25.390Z,4.20
2018-06-08T03:05:52.308Z,4.33
2018-06-08T03:08:19.209Z,4.53
2018-06-08T03:10:46.084Z,3.67
2018-06-08T03:13:12.986Z,3.70
2018-06-08T03:15:39.885Z,4.17
2018-06-08T03:18:06.764Z,4.10
2018-06-08T03:20:33.659Z,4.10
2018-06-08T03:23:00.561Z,5.30
2018-06-08T03:25:27.452Z,4.40
2018-06-08T03:27:54.348Z,5.00
2018-06-08T03:30:21.232Z,4.97
2018-06-08T03:32:48.151Z,5.67
2018-06-08T03:35:15.061Z,5.53
2018-06-08T03:37:41.965Z,6.50
2018-06-08T03:40:08.872Z,5.70
2018-06-08T03:42:35.776Z,6.27
2018-06-08T03:45:02.723Z,6.10
2018-06-08T03:47:29.630Z,6.17
2018-06-08T03:49:56.524Z,5.90
2018-06-08T03:52:23.433Z,5.77
2018-06-08T03:54:50.307Z,6.37
2018-06-08T03:57:17.196Z,5.90
2018-06-08T03:59:44.092Z,5.93
2018-06-08T04:02:10.983Z,6.13
2018-06-08T04:04:37.877Z,6.43
2018-06-08T04:07:04.776Z,6.60
2018-06-08T04:09:31.665Z,5.27
2018-06-08T04:11:58.565Z,5.10
2018-06-08T04:14:25.444Z,5.97
2018-06-08T04:16:52.340Z,6.20
2018-06-08T04:19:19.224Z,6.17
2018-06-08T04:21:46.140Z,6.50
2018-06-08T04:24:13.036Z,6.97
2018-06-08T04:26:39.936Z,5.90
2018-06-08T04:29:06.834Z,5.97
2018-06-08T04:31:33.748Z,5.83
2018-06-08T04:34:00.649Z,5.47
2018-06-08T04:36:27.580Z,5.63
2018-06-08T04:38:54.536Z,5.57
2018-06-08T04:41:21.432Z,5.33
2018-06-08T04:43:48.362Z,6.20
2018-06-08T04:46:15.251Z,5.47
2018-06-08T04:48:42.157Z,5.63
2018-06-08T04:51:09.051Z,5.60
2018-06-08T04:53:35.948Z,5.37
2018-06-08T04:56:02.856Z,5.23
2018-06-08T04:58:29.752Z,5.27
2018-06-08T05:00:56.643Z,4.93
2018-06-08T05:03:23.541Z,5.73
2018-06-08T05:05:50.441Z,5.27
2018-06-08T05:08:17.344Z,5.70
2018-06-08T05:10:44.248Z,5.13
2018-06-08T05:13:11.155Z,5.63
2018-06-08T05:15:38.035Z,4.73
2018-06-08T05:18:04.959Z,4.80
2018-06-08T05:20:31.847Z,4.77
2018-06-08T05:22:58.756Z,5.00
2018-06-08T05:25:25.664Z,5.10
2018-06-08T05:27:52.584Z,4.97
2018-06-08T05:30:21.764Z,4.40
2018-06-08T05:32:48.678Z,4.10
2018-06-08T05:35:15.572Z,4.03
2018-06-08T05:37:42.520Z,3.83
2018-06-08T05:40:09.425Z,3.67
2018-06-08T05:42:36.369Z,4.40
2018-06-08T05:45:03.324Z,3.87
2018-06-08T05:47:30.253Z,4.30
2018-06-08T05:49:57.169Z,3.67
2018-06-08T05:52:24.072Z,3.70
2018-06-08T05:54:51.006Z,3.20
2018-06-08T05:57:17.892Z,3.20
2018-06-08T05:59:44.821Z,3.40
2018-06-08T06:02:11.732Z,3.40
2018-06-08T06:04:38.632Z,3.13
2018-06-08T06:07:05.629Z,3.37
2018-06-08T06:09:32.539Z,3.30
2018-06-08T06:11:59.441Z,3.20
2018-06-08T06:14:26.352Z,3.07
2018-06-08T06:16:53.269Z,3.70
2018-06-08T06:19:20.181Z,3.57
2018-06-08T06:21:47.088Z,3.73
2018-06-08T06:24:13.996Z,3.80
2018-06-08T06:26:40.892Z,3.00
2018-06-08T06:29:07.796Z,2.93
2018-06-08T06:31:34.704Z,2.30
2018-06-08T06:34:01.622Z,2.67
2018-06-08T06:36:28.528Z,3.10
2018-06-08T06:38:55.435Z,3.00
2018-06-08T06:41:22.335Z,2.80
2018-06-08T06:43:49.235Z,2.70
2018-06-08T06:46:16.171Z,2.90
2018-06-08T06:48:43.077Z,2.50
2018-06-08T06:51:09.976Z,2.87
2018-06-08T06:53:36.892Z,2.60
2018-06-08T06:56:03.832Z,2.50
2018-06-08T06:58:30.749Z,2.70
2018-06-08T07:00:57.635Z,2.73
2018-06-08T07:03:24.569Z,2.70
2018-06-08T07:05:51.480Z,2.70
2018-06-08T07:08:18.394Z,2.80
2018-06-08T07:10:45.293Z,2.93
2018-06-08T07:13:12.216Z,2.37
2018-06-08T07:15:39.112Z,2.80
2018-06-08T07:18:06.020Z,2.53
2018-06-08T07:20:32.939Z,2.37
2018-06-08T07:22:59.844Z,2.20
2018-06-08T07:25:26.760Z,2.23
2018-06-08T07:27:53.656Z,2.20
2018-06-08T07:30:20.568Z,2.40
2018-06-08T07:32:47.477Z,2.70
2018-06-08T07:35:14.384Z,2.80
2018-06-08T07:37:41.264Z,2.30
2018-06-08T07:40:08.227Z,2.53
2018-06-08T07:42:35.079Z,2.57
2018-06-08T07:45:01.976Z,2.50
2018-06-08T07:47:28.871Z,2.47
2018-06-08T07:49:55.772Z,2.20
2018-06-08T07:52:22.674Z,2.40
2018-06-08T07:54:49.572Z,2.27
2018-06-08T07:57:16.456Z,2.40
2018-06-08T07:59:43.366Z,2.43
2018-06-08T08:02:10.272Z,2.40
2018-06-08T08:04:37.180Z,2.97
2018-06-08T08:07:04.178Z,2.40
2018-06-08T08:09:31.084Z,2.40
2018-06-08T08:11:57.976Z,2.17
2018-06-08T08:14:24.911Z,2.10
2018-06-08T08:16:51.824Z,2.33
2018-06-08T08:19:18.780Z,2.10
2018-06-08T08:21:45.642Z,2.20
2018-06-08T08:24:12.520Z,2.40
2018-06-08T08:26:39.413Z,2.40
2018-06-08T08:29:06.295Z,2.37
2018-06-08T08:31:33.183Z,2.33
2018-06-08T08:34:00.048Z,1.90
2018-06-08T08:36:26.988Z,2.33
2018-06-08T08:38:53.847Z,2.10
2018-06-08T08:41:20.753Z,1.97
2018-06-08T08:43:47.616Z,2.03
2018-06-08T08:46:14.489Z,2.10
2018-06-08T08:48:41.398Z,2.37
2018-06-08T08:51:08.294Z,2.30
2018-06-08T08:53:35.167Z,2.20
2018-06-08T08:56:02.062Z,2.30
2018-06-08T08:58:28.945Z,2.17
2018-06-08T09:00:55.836Z,2.70
2018-06-08T09:03:22.703Z,2.57
2018-06-08T09:05:49.587Z,2.40
2018-06-08T09:08:16.488Z,2.00
2018-06-08T09:10:43.372Z,3.00
2018-06-08T09:13:10.243Z,2.70
2018-06-08T09:15:37.110Z,2.80
2018-06-08T09:18:04.226Z,2.63
2018-06-08T09:20:31.217Z,2.57
2018-06-08T09:22:58.095Z,2.63
2018-06-08T09:25:24.984Z,2.50
2018-06-08T09:27:51.868Z,2.70
2018-06-08T09:30:18.763Z,2.90
2018-06-08T09:32:45.640Z,2.80
2018-06-08T09:35:13.604Z,2.37
2018-06-08T09:37:40.482Z,2.60
2018-06-08T09:40:07.356Z,2.70
2018-06-08T09:42:34.255Z,2.50
2018-06-08T09:45:01.141Z,2.40
2018-06-08T09:47:28.048Z,2.60
2018-06-08T09:49:54.958Z,2.60
2018-06-08T09:52:21.857Z,3.00
2018-06-08T09:54:48.791Z,2.50
2018-06-08T09:57:15.667Z,2.40
2018-06-08T09:59:42.568Z,2.53
2018-06-08T10:02:09.475Z,2.43
2018-06-08T10:04:37.032Z,2.53
2018-06-08T10:07:03.963Z,3.07
2018-06-08T10:09:30.849Z,2.30
2018-06-08T10:11:57.812Z,2.40
2018-06-08T10:14:24.712Z,2.50
2018-06-08T10:16:51.613Z,2.57
2018-06-08T10:19:18.560Z,2.37
2018-06-08T10:21:45.477Z,2.40
2018-06-08T10:24:12.404Z,3.10
2018-06-08T10:26:39.296Z,2.83
2018-06-08T10:29:06.229Z,2.80
2018-06-08T10:31:33.107Z,2.87
2018-06-08T10:34:00.023Z,2.60
2018-06-08T10:36:27.779Z,2.80
2018-06-08T10:38:54.708Z,3.20
2018-06-08T10:41:21.617Z,3.37
2018-06-08T10:43:48.520Z,2.90
2018-06-08T10:46:15.412Z,3.53
2018-06-08T10:48:42.320Z,3.30
2018-06-08T10:51:09.209Z,3.40
2018-06-08T10:53:36.116Z,3.20
2018-06-08T10:56:03.116Z,3.20
2018-06-08T10:58:30.229Z,3.50
2018-06-08T11:00:57.141Z,3.20
2018-06-08T11:03:24.089Z,3.40
2018-06-08T11:05:51.308Z,3.33
2018-06-08T11:08:18.556Z,3.93
2018-06-08T11:10:45.451Z,3.60
2018-06-08T11:13:12.475Z,3.30
2018-06-08T11:15:39.360Z,3.50
2018-06-08T11:18:06.273Z,3.60
2018-06-08T11:20:33.156Z,3.70
2018-06-08T11:23:00.070Z,3.33
2018-06-08T11:25:27.011Z,3.87
2018-06-08T11:27:53.925Z,4.13
2018-06-08T11:30:20.816Z,4.03
2018-06-08T11:32:47.708Z,4.00
2018-06-08T11:35:14.612Z,3.70
2018-06-08T11:37:41.485Z,3.50
2018-06-08T11:40:08.376Z,3.37
2018-06-08T11:42:35.273Z,3.63
2018-06-08T11:45:02.206Z,4.43
2018-06-08T11:47:29.109Z,4.07
2018-06-08T11:49:56.020Z,4.10
2018-06-08T11:52:22.917Z,4.10
2018-06-08T11:54:49.829Z,4.40
2018-06-08T11:57:16.713Z,3.97
2018-06-08T11:59:43.619Z,3.57
2018-06-08T12:02:10.512Z,3.73
2018-06-08T12:04:37.432Z,3.80
2018-06-08T12:07:04.351Z,3.90
2018-06-08T12:09:31.270Z,4.00
2018-06-08T12:11:58.148Z,3.77
2018-06-08T12:14:25.056Z,3.53
2018-06-08T12:16:51.963Z,4.37
2018-06-08T12:19:18.881Z,4.23
2018-06-08T12:21:45.781Z,3.90
2018-06-08T12:24:12.674Z,3.60
2018-06-08T12:26:39.557Z,3.70
2018-06-08T12:29:06.429Z,3.63
2018-06-08T12:31:33.320Z,3.70
2018-06-08T12:34:00.196Z,4.00
2018-06-08T12:36:27.095Z,4.03
2018-06-08T12:38:53.972Z,4.23
2018-06-08T12:41:20.868Z,4.10
2018-06-08T12:43:47.756Z,4.60
2018-06-08T12:46:14.648Z,4.97
2018-06-08T12:48:41.533Z,4.77
2018-06-08T12:51:08.597Z,4.27
2018-06-08T12:53:35.480Z,4.03
2018-06-08T12:56:02.392Z,4.17
2018-06-08T12:58:29.257Z,3.97
2018-06-08T13:00:56.135Z,4.33
2018-06-08T13:03:23.017Z,4.00
2018-06-08T13:05:49.897Z,4.40
2018-06-08T13:08:16.804Z,4.30
2018-06-08T13:10:43.719Z,4.10
2018-06-08T13:13:10.599Z,3.77
2018-06-08T13:15:37.502Z,4.63
2018-06-08T13:18:04.533Z,4.20
2018-06-08T13:20:31.444Z,4.37
2018-06-08T13:22:58.341Z,4.27
2018-06-08T13:25:25.240Z,4.10
2018-06-08T13:27:52.148Z,4.73
2018-06-08T13:30:19.945Z,4.60
2018-06-08T13:32:46.843Z,4.40
2018-06-08T13:35:13.784Z,4.73
2018-06-08T13:37:40.693Z,3.97
2018-06-08T13:40:07.589Z,3.77
2018-06-08T13:42:34.564Z,3.80
2018-06-08T13:45:01.460Z,3.87
2018-06-08T13:47:28.413Z,3.80
2018-06-08T13:49:55.307Z,3.50
2018-06-08T13:52:22.196Z,3.83
2018-06-08T13:54:49.097Z,3.40
2018-06-08T13:57:16.025Z,3.27
2018-06-08T13:59:42.911Z,3.43
2018-06-08T14:02:09.801Z,4.00
2018-06-08T14:04:36.700Z,3.80
2018-06-08T14:07:03.687Z,3.37
2018-06-08T14:09:30.583Z,3.63
2018-06-08T14:11:57.523Z,3.37
2018-06-08T14:14:24.394Z,3.60
2018-06-08T14:16:51.312Z,3.43
2018-06-08T14:19:18.210Z,4.27
2018-06-08T14:21:45.103Z,3.60
2018-06-08T14:24:12.008Z,3.93
2018-06-08T14:26:38.887Z,3.33
2018-06-08T14:29:05.765Z,3.47
2018-06-08T14:31:32.664Z,3.30
2018-06-08T14:33:59.566Z,3.60
2018-06-08T14:36:26.478Z,4.17
2018-06-08T14:38:53.361Z,3.60
2018-06-08T14:41:20.269Z,3.53
2018-06-08T14:43:47.142Z,3.73
2018-06-08T14:46:14.029Z,3.60
2018-06-08T14:48:40.904Z,3.20
2018-06-08T14:51:07.802Z,3.80
2018-06-08T14:53:34.687Z,3.43
2018-06-08T14:56:01.557Z,3.27
2018-06-08T14:58:28.436Z,3.50
2018-06-08T15:00:55.311Z,3.40
2018-06-08T15:03:22.188Z,4.13
2018-06-08T15:05:49.054Z,3.50
2018-06-08T15:08:15.917Z,3.50
2018-06-08T15:10:42.788Z,3.40
2018-06-08T15:13:09.663Z,3.50
2018-06-08T15:15:36.556Z,3.37
2018-06-08T15:18:03.465Z,3.50
2018-06-08T15:20:30.348Z,3.23
2018-06-08T15:22:57.247Z,3.30
2018-06-08T15:25:24.133Z,3.47
2018-06-08T15:27:51.032Z,3.10
2018-06-08T15:30:17.919Z,3.20
2018-06-08T15:32:44.816Z,3.40
2018-06-08T15:35:11.708Z,3.20
2018-06-08T15:37:38.647Z,3.13
2018-06-08T15:40:05.570Z,3.17
2018-06-08T15:42:32.469Z,3.27
2018-06-08T15:44:59.368Z,3.37
2018-06-08T15:47:26.289Z,3.07
2018-06-08T15:49:53.182Z,3.33
2018-06-08T15:52:20.093Z,3.30
2018-06-08T15:54:46.998Z,2.93
2018-06-08T15:57:13.893Z,3.03
2018-06-08T15:59:40.793Z,3.10
2018-06-08T16:02:07.689Z,3.10
2018-06-08T16:04:34.607Z,3.20
2018-06-08T16:07:01.504Z,3.37
2018-06-08T16:09:28.415Z,3.17
2018-06-08T16:11:55.301Z,3.23
2018-06-08T16:14:22.223Z,2.90
2018-06-08T16:16:49.138Z,2.90
2018-06-08T16:19:16.052Z,2.80
2018-06-08T16:21:42.938Z,2.93
2018-06-08T16:24:09.823Z,3.30
2018-06-08T16:26:36.702Z,2.90
2018-06-08T16:29:03.612Z,3.03
2018-06-08T16:31:30.497Z,4.20
2018-06-08T16:33:57.383Z,3.03
2018-06-08T16:36:24.269Z,3.10
2018-06-08T16:38:51.152Z,3.40
2018-06-08T16:41:18.021Z,2.80
2018-06-08T16:43:44.918Z,2.93
2018-06-08T16:46:11.800Z,2.93
2018-06-08T16:48:38.686Z,2.97
2018-06-08T16:51:05.900Z,2.77
2018-06-08T16:53:32.787Z,2.53
2018-06-08T16:55:59.657Z,3.50
2018-06-08T16:58:26.532Z,2.93
2018-06-08T17:00:53.429Z,3.10
2018-06-08T17:03:20.322Z,3.27
2018-06-08T17:05:47.214Z,3.23
2018-06-08T17:08:14.096Z,3.83
2018-06-08T17:10:40.997Z,3.37
2018-06-08T17:13:08.108Z,3.30
2018-06-08T17:15:35.001Z,3.60
2018-06-08T17:18:01.893Z,3.30
2018-06-08T17:20:28.780Z,3.27
2018-06-08T17:22:55.694Z,3.50
2018-06-08T17:25:22.617Z,3.40
2018-06-08T17:27:49.516Z,3.30
2018-06-08T17:30:16.433Z,3.20
2018-06-08T17:32:43.316Z,3.07
2018-06-08T17:35:10.212Z,3.10
2018-06-08T17:37:37.112Z,3.10
2018-06-08T17:40:04.324Z,3.47
2018-06-08T17:42:31.221Z,3.00
2018-06-08T17:44:58.139Z,3.60
2018-06-08T17:47:25.053Z,3.27
2018-06-08T17:52:26.100Z,3.23
2018-06-08T17:54:53.004Z,3.10
2018-06-08T17:57:19.985Z,3.27
2018-06-08T17:59:46.812Z,3.30
2018-06-08T18:02:13.716Z,3.07
2018-06-08T18:04:40.620Z,3.23
2018-06-08T18:07:07.526Z,3.40
2018-06-08T18:09:34.431Z,3.70
2018-06-08T18:12:01.324Z,3.30
2018-06-08T18:14:28.232Z,3.00
2018-06-08T18:16:55.148Z,3.33
2018-06-08T18:19:22.061Z,3.23
2018-06-08T18:21:48.968Z,3.00
2018-06-08T18:24:15.846Z,3.40
2018-06-08T18:26:42.732Z,3.60
2018-06-08T18:29:09.603Z,3.30
2018-06-08T18:31:36.488Z,3.23
2018-06-08T18:34:03.448Z,3.60
2018-06-08T18:36:30.341Z,3.50
2018-06-08T18:38:57.223Z,3.53
2018-06-08T18:41:24.144Z,3.93
2018-06-08T18:43:51.012Z,3.93
2018-06-08T18:46:17.887Z,3.10
2018-06-08T18:48:44.756Z,3.43
2018-06-08T18:51:11.651Z,3.50
2018-06-08T18:53:38.512Z,3.60
2018-06-08T18:56:05.416Z,3.00
2018-06-08T18:58:32.300Z,3.30
2018-06-08T19:00:59.178Z,3.10
2018-06-08T19:03:26.065Z,3.33
2018-06-08T19:05:52.952Z,3.13
2018-06-08T19:08:19.834Z,3.23
2018-06-08T19:10:46.728Z,3.80
2018-06-08T19:13:13.625Z,3.83
2018-06-08T19:15:40.512Z,3.57
2018-06-08T19:18:07.392Z,3.80
2018-06-08T19:20:34.263Z,3.30
2018-06-08T19:23:01.174Z,3.43
2018-06-08T19:25:28.087Z,3.30
2018-06-08T19:27:54.996Z,3.50
2018-06-08T19:30:21.912Z,3.17
2018-06-08T19:32:48.817Z,4.00
2018-06-08T19:35:15.724Z,4.10
2018-06-08T19:37:42.630Z,3.83
2018-06-08T19:40:09.532Z,3.83
2018-06-08T19:42:36.431Z,3.30
2018-06-08T19:45:03.780Z,4.10
2018-06-08T19:47:30.688Z,3.60
2018-06-08T19:49:57.572Z,3.97
2018-06-08T19:52:24.477Z,3.73
2018-06-08T19:54:51.388Z,3.60
2018-06-08T19:57:18.370Z,3.27
2018-06-08T19:59:45.289Z,3.20
2018-06-08T20:02:12.260Z,3.67
2018-06-08T20:04:39.171Z,3.60
2018-06-08T20:07:06.084Z,3.60
2018-06-08T20:09:32.999Z,3.30
2018-06-08T20:11:59.904Z,3.30
2018-06-08T20:14:26.801Z,3.10
2018-06-08T20:16:53.700Z,3.10
2018-06-08T20:19:21.391Z,3.20
2018-06-08T20:21:48.324Z,3.50
2018-06-08T20:24:15.230Z,3.27
2018-06-08T20:26:42.136Z,3.33
2018-06-08T20:29:09.055Z,3.50
2018-06-08T20:31:35.975Z,3.80
2018-06-08T20:34:02.856Z,3.97
2018-06-08T20:36:29.753Z,4.33
2018-06-08T20:38:56.636Z,4.37
2018-06-08T20:41:23.544Z,4.00
2018-06-08T20:43:50.428Z,3.53
2018-06-08T20:46:17.331Z,3.50
2018-06-08T20:48:44.210Z,3.80
2018-06-08T20:51:11.110Z,3.63
2018-06-08T20:53:38.000Z,3.70
2018-06-08T20:56:04.925Z,3.57
2018-06-08T20:58:31.815Z,3.70
2018-06-08T21:00:58.708Z,3.57
2018-06-08T21:03:25.640Z,3.60
2018-06-08T21:05:52.525Z,3.50
2018-06-08T21:08:19.421Z,3.23
2018-06-08T21:10:46.321Z,3.20
2018-06-08T21:13:13.225Z,3.73
2018-06-08T21:15:40.120Z,3.60
2018-06-08T21:18:07.007Z,3.80
2018-06-08T21:20:33.888Z,3.63
2018-06-08T21:23:00.799Z,3.17
2018-06-08T21:25:27.689Z,3.70
2018-06-08T21:27:54.595Z,3.90
2018-06-08T21:30:21.487Z,3.43
2018-06-08T21:32:48.390Z,3.80
2018-06-08T21:35:15.307Z,3.53
2018-06-08T21:37:42.208Z,3.63
2018-06-08T21:40:09.116Z,3.93
2018-06-08T21:42:36.012Z,3.87
2018-06-08T21:45:02.939Z,3.80
2018-06-08T21:47:29.835Z,3.77
2018-06-08T21:49:56.735Z,4.40
2018-06-08T21:52:23.646Z,3.73
2018-06-08T21:54:50.545Z,3.63
2018-06-08T21:57:17.474Z,3.40
2018-06-08T21:59:44.380Z,4.20
2018-06-08T22:02:11.315Z,4.00
2018-06-08T22:04:38.228Z,4.10
2018-06-08T22:07:05.182Z,4.30
2018-06-08T22:09:32.093Z,4.13
2018-06-08T22:11:59.000Z,4.33
2018-06-08T22:14:25.984Z,4.07
2018-06-08T22:16:52.828Z,4.00
2018-06-08T22:19:19.744Z,4.53
2018-06-08T22:21:46.664Z,4.50
2018-06-08T22:24:13.568Z,4.00
2018-06-08T22:26:40.463Z,3.93
2018-06-08T22:29:07.397Z,4.50
2018-06-08T22:31:34.279Z,4.23
2018-06-08T22:34:01.180Z,4.30
2018-06-08T22:36:28.073Z,4.17
2018-06-08T22:38:54.998Z,4.50
2018-06-08T22:41:21.911Z,4.30
2018-06-08T22:43:48.812Z,4.33
2018-06-08T22:46:15.732Z,4.70
2018-06-08T22:48:42.652Z,4.20
2018-06-08T22:51:09.555Z,4.50
2018-06-08T22:53:36.461Z,4.50
2018-06-08T22:56:03.380Z,4.27
2018-06-08T22:58:30.287Z,4.30
2018-06-08T23:00:57.270Z,4.63
2018-06-08T23:03:24.111Z,4.37
2018-06-08T23:05:51.032Z,3.90
2018-06-08T23:08:17.965Z,4.43
2018-06-08T23:10:44.870Z,4.50
2018-06-08T23:13:11.787Z,4.30
2018-06-08T23:15:38.679Z,5.27
2018-06-08T23:18:05.592Z,4.33
2018-06-08T23:20:32.492Z,4.63
2018-06-08T23:22:59.384Z,4.23
2018-06-08T23:25:26.280Z,5.07
2018-06-08T23:27:53.203Z,4.77
2018-06-08T23:30:20.089Z,5.10
2018-06-08T23:32:46.973Z,5.40
2018-06-08T23:35:13.863Z,4.93
2018-06-08T23:37:40.752Z,4.60
2018-06-08T23:40:07.653Z,4.67
2018-06-08T23:42:34.560Z,4.53
2018-06-08T23:45:01.466Z,4.57
2018-06-08T23:47:28.365Z,4.53
2018-06-08T23:49:55.256Z,4.73
2018-06-08T23:52:22.152Z,4.40
2018-06-08T23:54:49.047Z,5.00
2018-06-08T23:57:15.912Z,4.83
2018-06-08T23:59:43.316Z,4.23
